• Join FlightAware (Why Join?)
  • Login
  • US Flag GB Flag 
13:59 EDT


 

Airport Tracker/Info


-or-


 

Live Flight TrackerFlight Track Log ✈ PDT4207 ✈ 04-Mar-2014 ✈ KPHL - KBGM

Flight Track Log - Related Links

Times and Time Zones

All times are in EST time to prevent confusion due to time zone crossing. See the PDT4207 flight status page for this flight to view local times or setup timezone preferences in your user account.

Time Position Orientation Groundspeed Altitude Reporting Facility
EST Latitude Longitude Course Direction KTS MPH feet Rate Location/Type
21:46 39.9000 -75.2333 311° West 118 136 500  Level Philadelphia TRACON
21:48 39.9167 -75.3000 288° West 138 159 2,500 1,380 Climbing Philadelphia TRACON
21:49 40.0635 -75.4135 323° Northwest  Level FlightAware Approximate
21:49 39.9167 -75.3500 270° West 155 178 3,700  Level Philadelphia TRACON
21:50 40.1258 -75.4758 323° Northwest  Level FlightAware Approximate
21:50 39.9144 -75.3961 266° West 166 191 5,200  Level New York Center
21:51 40.1894 -75.5341 311° West  Level FlightAware Approximate
21:51 39.9164 -75.4506 273° West 158 182 6,600  Level New York Center
21:52 40.2488 -75.5982 311° West  Level FlightAware Approximate
21:52 39.9228 -75.5022 279° West 158 182 8,100  Level New York Center
21:53 39.9683 -75.5053 357° North 130 150 9,400 1,260 Climbing New York Center
21:54 40.0225 -75.5117 355° North 167 192 10,700 1,260 Climbing New York Center
21:55 40.0636 -75.5256 346° North 172 198 12,000 660 Climbing New York Center
21:56 40.1233 -75.5406 349° North 191 220 12,100  Climbing New York Center
21:57 40.1833 -75.5500 353° North 226 260 12,100 -60 Level New York Center
21:58 40.2467 -75.5814 339° North 230 265 12,000 -60 Descending New York Center
21:59 40.2736 -75.6406 301° West 205 236 12,000  Level New York Center
22:00 40.3128 -75.6978 312° West 211 243 12,000  Level New York Center
22:01 40.3828 -75.7192 347° North 211 243 12,000  Level New York Center
22:02 40.4444 -75.7397 346° North 228 262 12,000  Level New York Center
22:03 40.5083 -75.7553 350° North 234 269 12,000  Level New York Center
22:04 40.5661 -75.7706 349° North 234 269 12,000  Level New York Center
22:05 40.6303 -75.7833 351° North 234 269 12,000  Level New York Center
22:06 40.7008 -75.7914 355° North 234 269 12,000  Level New York Center
22:07 40.7644 -75.8097 348° North 234 269 12,000  Level New York Center
22:08 40.8242 -75.8278 347° North 234 269 12,000  Level New York Center
22:09 40.8842 -75.8406 351° North 234 269 12,000  Level New York Center
22:10 40.9458 -75.8561 349° North 234 269 12,000 -480 Level New York Center
22:11 41.0100 -75.8692 351° North 234 269 11,100 -960 Descending New York Center
22:12 41.0781 -75.8853 350° North 239 275 10,100 -600 Descending New York Center
22:13 41.1522 -75.9019 350° North 239 275 10,000 -60 Descending New York Center
22:14 41.2164 -75.9122 353° North 233 268 10,000  Level New York Center
22:15 41.2722 -75.9247 350° North 228 262 10,000 -480 Level New York Center
22:16 41.3336 -75.9489 344° North 228 262 9,100 -960 Descending New York Center
22:17 41.4036 -75.9681 348° North 236 272 8,100 -600 Descending New York Center
22:18 41.4697 -75.9814 351° North 241 277 8,000 -60 Descending New York Center
22:19 41.5397 -75.9953 352° North 230 265 8,000  Level New York Center
22:20 41.6014 -76.0139 347° North 224 258 8,000  Level New York Center
22:21 41.6603 -76.0047 North 224 258 8,000  Level New York Center
22:22 41.7269 -76.0017 North 224 258 8,000 -480 Level New York Center
22:23 41.8017 -76.0047 358° North 235 270 7,100 -960 Descending New York Center
22:24 41.8725 -76.0075 358° North 241 277 6,100 -1,020 Descending New York Center
22:25 41.9369 -76.0069 360° North 255 293 5,100 -960 Descending New York Center
22:26 42.0058 -76.0011 North 250 288 4,200 -720 Descending New York Center
22:27 42.0717 -75.9756 16° North 236 272 3,700 -360 Descending New York Center
22:28 42.1144 -75.9456 27° Northeast 202 232 3,500 -420 Descending New York Center
22:29 42.1503 -75.9372 10° North 160 184 2,900 -600 Descending New York Center
22:30 42.1744 -75.9558 330° Northwest 117 135 2,300 -600 Descending New York Center